createdAt,value
2017-04-22T00:00:34.534Z,34.08
2017-04-22T00:01:35.990Z,34.17
2017-04-22T00:02:37.446Z,34.17
2017-04-22T00:03:38.904Z,34.17
2017-04-22T00:04:40.360Z,34.08
2017-04-22T00:05:41.817Z,34.37
2017-04-22T00:06:43.271Z,34.17
2017-04-22T00:07:44.727Z,34.17
2017-04-22T00:08:46.182Z,33.98
2017-04-22T00:09:47.639Z,34.37
2017-04-22T00:10:49.097Z,34.17
2017-04-22T00:11:50.553Z,34.37
2017-04-22T00:12:52.011Z,34.08
2017-04-22T00:13:53.465Z,34.37
2017-04-22T00:14:54.921Z,34.17
2017-04-22T00:15:56.378Z,34.27
2017-04-22T00:16:57.833Z,34.08
2017-04-22T00:17:59.289Z,34.08
2017-04-22T00:19:00.746Z,34.46
2017-04-22T00:20:02.203Z,34.37
2017-04-22T00:21:03.659Z,34.46
2017-04-22T00:22:05.115Z,34.56
2017-04-22T00:23:06.569Z,34.37
2017-04-22T00:24:07.979Z,34.46
2017-04-22T00:25:09.432Z,34.17
2017-04-22T00:26:10.888Z,34.27
2017-04-22T00:27:12.345Z,34.17
2017-04-22T00:28:13.800Z,34.17
2017-04-22T00:29:15.256Z,34.37
2017-04-22T00:30:16.713Z,34.17
2017-04-22T00:31:18.170Z,34.37
2017-04-22T00:32:19.626Z,34.37
2017-04-22T00:33:21.082Z,34.46
2017-04-22T00:34:22.539Z,34.46
2017-04-22T00:35:23.994Z,34.46
2017-04-22T00:36:25.450Z,34.37
2017-04-22T00:37:26.907Z,34.46
2017-04-22T00:38:28.362Z,34.46
2017-04-22T00:39:29.819Z,34.46
2017-04-22T00:40:31.276Z,34.37
2017-04-22T00:41:32.731Z,34.37
2017-04-22T00:42:34.186Z,34.75
2017-04-22T00:43:35.662Z,34.37
2017-04-22T00:44:37.099Z,34.56
2017-04-22T00:45:38.555Z,34.46
2017-04-22T00:46:40.008Z,34.46
2017-04-22T00:47:41.463Z,34.66
2017-04-22T00:48:42.921Z,34.46
2017-04-22T00:49:44.378Z,34.56
2017-04-22T00:50:45.835Z,34.46
2017-04-22T00:51:47.289Z,34.46
2017-04-22T00:52:48.745Z,34.37
2017-04-22T00:53:50.201Z,34.46
2017-04-22T00:54:51.661Z,34.46
2017-04-22T00:55:53.071Z,34.66
2017-04-22T00:56:54.525Z,34.66
2017-04-22T00:57:55.980Z,34.75
2017-04-22T00:58:57.435Z,34.66
2017-04-22T00:59:58.889Z,34.66
2017-04-22T01:01:00.344Z,34.64
2017-04-22T01:02:01.799Z,34.64
2017-04-22T01:03:03.254Z,34.75
2017-04-22T01:04:04.710Z,34.66
2017-04-22T01:05:06.167Z,34.45
2017-04-22T01:06:07.626Z,34.64
2017-04-22T01:07:09.081Z,34.74
2017-04-22T01:08:10.543Z,34.54
2017-04-22T01:09:12.000Z,34.83
2017-04-22T01:10:13.457Z,34.74
2017-04-22T01:11:14.910Z,34.54
2017-04-22T01:12:16.366Z,34.83
2017-04-22T01:13:17.822Z,34.64
2017-04-22T01:14:19.277Z,34.84
2017-04-22T01:15:20.732Z,34.75
2017-04-22T01:16:22.196Z,34.66
2017-04-22T01:17:23.659Z,34.75
2017-04-22T01:18:25.113Z,34.84
2017-04-22T01:19:26.570Z,34.66
2017-04-22T01:20:28.027Z,34.83
2017-04-22T01:21:29.483Z,34.64
2017-04-22T01:22:30.945Z,34.74
2017-04-22T01:23:32.398Z,34.74
2017-04-22T01:24:33.853Z,34.83
2017-04-22T01:25:35.309Z,34.75
2017-04-22T01:26:36.766Z,34.74
2017-04-22T01:27:38.219Z,34.74
2017-04-22T01:28:39.676Z,34.92
2017-04-22T01:29:41.134Z,34.84
2017-04-22T01:30:42.591Z,34.66
2017-04-22T01:31:44.047Z,34.75
2017-04-22T01:32:45.503Z,34.94
2017-04-22T01:33:46.959Z,34.83
2017-04-22T01:34:48.418Z,34.83
2017-04-22T01:35:49.879Z,34.75
2017-04-22T01:36:51.328Z,34.83
2017-04-22T01:37:52.785Z,34.74
2017-04-22T01:38:54.243Z,34.83
2017-04-22T01:39:55.695Z,34.92
2017-04-22T01:40:57.149Z,34.75
2017-04-22T01:41:58.604Z,34.74
2017-04-22T01:43:00.062Z,34.83
2017-04-22T01:44:01.517Z,34.74
2017-04-22T01:45:02.973Z,34.74
2017-04-22T01:46:04.427Z,34.74
2017-04-22T01:47:05.882Z,34.74
2017-04-22T01:48:07.341Z,34.74
2017-04-22T01:49:08.794Z,34.74
2017-04-22T01:50:10.253Z,34.83
2017-04-22T01:51:11.709Z,34.92
2017-04-22T01:52:13.165Z,34.92
2017-04-22T01:53:14.621Z,34.83
2017-04-22T01:54:16.078Z,34.74
2017-04-22T01:55:17.531Z,34.92
2017-04-22T01:56:18.987Z,34.74
2017-04-22T01:57:20.443Z,34.92
2017-04-22T01:58:21.899Z,34.92
2017-04-22T01:59:23.355Z,34.92
2017-04-22T02:00:24.811Z,34.92
2017-04-22T02:01:26.268Z,35.02
2017-04-22T02:02:27.726Z,34.92
2017-04-22T02:03:29.182Z,34.92
2017-04-22T02:04:30.639Z,34.74
2017-04-22T02:05:32.096Z,34.83
2017-04-22T02:06:33.551Z,34.83
2017-04-22T02:07:35.007Z,34.83
2017-04-22T02:08:36.461Z,34.83
2017-04-22T02:09:37.915Z,34.92
2017-04-22T02:10:39.369Z,34.83
2017-04-22T02:11:40.823Z,34.74
2017-04-22T02:12:42.279Z,34.92
2017-04-22T02:13:43.734Z,34.92
2017-04-22T02:14:45.191Z,34.83
2017-04-22T02:15:46.650Z,34.92
2017-04-22T02:16:48.101Z,34.92
2017-04-22T02:17:49.561Z,34.83
2017-04-22T02:18:51.014Z,34.83
2017-04-22T02:19:52.467Z,34.83
2017-04-22T02:20:53.926Z,34.83
2017-04-22T02:21:55.381Z,35.12
2017-04-22T02:22:56.834Z,34.83
2017-04-22T02:23:58.291Z,35.02
2017-04-22T02:24:59.746Z,35.02
2017-04-22T02:26:01.202Z,34.92
2017-04-22T02:27:02.655Z,35.02
2017-04-22T02:28:04.109Z,35.02
2017-04-22T02:29:05.567Z,35.12
2017-04-22T02:30:07.021Z,35.12
2017-04-22T02:31:08.478Z,35.12
2017-04-22T02:32:09.936Z,35.02
2017-04-22T02:33:11.391Z,35.12
2017-04-22T02:34:12.847Z,35.02
2017-04-22T02:35:14.302Z,35.12
2017-04-22T02:36:15.757Z,35.12
2017-04-22T02:37:17.214Z,35.12
2017-04-22T02:38:18.670Z,35.02
2017-04-22T02:39:20.128Z,35.12
2017-04-22T02:40:21.580Z,35.02
2017-04-22T02:41:23.035Z,35.02
2017-04-22T02:42:24.490Z,35.12
2017-04-22T02:43:25.944Z,34.92
2017-04-22T02:44:27.399Z,35.12
2017-04-22T02:45:28.856Z,35.12
2017-04-22T02:46:30.313Z,35.22
2017-04-22T02:47:31.771Z,35.02
2017-04-22T02:48:33.226Z,35.22
2017-04-22T02:49:34.683Z,35.12
2017-04-22T02:50:36.137Z,35.12
2017-04-22T02:51:37.591Z,35.22
2017-04-22T02:52:39.048Z,35.22
2017-04-22T02:53:40.504Z,35.12
2017-04-22T02:54:41.961Z,35.12
2017-04-22T02:55:43.418Z,35.02
2017-04-22T02:56:44.873Z,35.22
2017-04-22T02:57:46.338Z,35.22
2017-04-22T02:58:47.794Z,35.12
2017-04-22T02:59:49.248Z,35.22
2017-04-22T03:00:50.704Z,35.12
2017-04-22T03:01:52.111Z,35.12
2017-04-22T03:02:53.568Z,35.12
2017-04-22T03:03:55.024Z,35.22
2017-04-22T03:04:56.478Z,35.12
2017-04-22T03:05:57.934Z,35.22
2017-04-22T03:06:59.391Z,35.12
2017-04-22T03:08:00.848Z,35.12
2017-04-22T03:09:02.305Z,35.12
2017-04-22T03:10:03.763Z,35.22
2017-04-22T03:11:05.220Z,35.02
2017-04-22T03:12:06.677Z,35.02
2017-04-22T03:13:08.132Z,35.22
2017-04-22T03:14:09.587Z,35.02
2017-04-22T03:15:11.044Z,35.22
2017-04-22T03:16:12.503Z,35.12
2017-04-22T03:17:13.957Z,35.12
2017-04-22T03:18:15.414Z,35.12
2017-04-22T03:19:16.868Z,35.12
2017-04-22T03:20:18.323Z,35.12
2017-04-22T03:21:19.776Z,35.31
2017-04-22T03:22:21.182Z,35.22
2017-04-22T03:23:22.638Z,35.12
2017-04-22T03:24:24.095Z,35.12
2017-04-22T03:25:25.547Z,35.02
2017-04-22T03:26:27.003Z,34.92
2017-04-22T03:27:28.458Z,34.92
2017-04-22T03:28:29.915Z,34.83
2017-04-22T03:29:31.371Z,34.74
2017-04-22T03:30:32.828Z,34.83
2017-04-22T03:31:34.284Z,35.02
2017-04-22T03:32:35.740Z,34.74
2017-04-22T03:33:37.198Z,34.83
2017-04-22T03:34:38.654Z,34.74
2017-04-22T03:35:40.109Z,34.54
2017-04-22T03:36:41.564Z,34.74
2017-04-22T03:37:43.020Z,34.64
2017-04-22T03:38:44.480Z,34.64
2017-04-22T03:39:45.890Z,34.45
2017-04-22T03:40:47.342Z,34.64
2017-04-22T03:41:48.798Z,34.45
2017-04-22T03:42:50.253Z,34.45
2017-04-22T03:43:51.708Z,34.54
2017-04-22T03:44:53.162Z,34.45
2017-04-22T03:45:54.617Z,34.74
2017-04-22T03:46:56.071Z,34.54
2017-04-22T03:47:57.529Z,34.74
2017-04-22T03:48:58.984Z,34.45
2017-04-22T03:50:00.441Z,34.43
2017-04-22T03:51:01.896Z,34.43
2017-04-22T03:52:03.354Z,34.06
2017-04-22T03:53:04.810Z,33.95
2017-04-22T03:54:06.265Z,34.16
2017-04-22T03:55:07.720Z,34.14
2017-04-22T03:56:09.177Z,34.14
2017-04-22T03:57:10.632Z,33.97
2017-04-22T03:58:12.093Z,34.35
2017-04-22T03:59:13.546Z,34.25
2017-04-22T04:00:15.002Z,34.05
2017-04-22T04:01:16.458Z,33.66
2017-04-22T04:02:17.912Z,34.23
2017-04-22T04:03:19.368Z,34.16
2017-04-22T04:04:20.824Z,34.16
2017-04-22T04:05:22.279Z,34.14
2017-04-22T04:06:23.734Z,34.23
2017-04-22T04:07:25.206Z,34.14
2017-04-22T04:08:26.667Z,33.95
2017-04-22T04:09:28.123Z,34.23
2017-04-22T04:10:29.576Z,34.53
2017-04-22T04:11:31.031Z,34.33
2017-04-22T04:12:32.486Z,34.05
2017-04-22T04:13:33.963Z,34.33
2017-04-22T04:14:35.397Z,34.14
2017-04-22T04:15:36.858Z,34.43
2017-04-22T04:16:38.312Z,34.33
2017-04-22T04:17:39.766Z,33.95
2017-04-22T04:18:41.221Z,34.14
2017-04-22T04:19:42.677Z,34.14
2017-04-22T04:20:44.133Z,34.25
2017-04-22T04:21:45.587Z,34.05
2017-04-22T04:22:47.041Z,34.43
2017-04-22T04:23:48.519Z,34.43
2017-04-22T04:24:49.976Z,34.14
2017-04-22T04:25:51.430Z,34.14
2017-04-22T04:26:52.888Z,34.23
2017-04-22T04:27:54.348Z,34.53
2017-04-22T04:28:55.801Z,34.43
2017-04-22T04:29:57.257Z,34.05
2017-04-22T04:30:58.712Z,34.43
2017-04-22T04:32:00.169Z,34.43
2017-04-22T04:33:01.624Z,34.53
2017-04-22T04:34:03.086Z,34.33
2017-04-22T04:35:04.541Z,34.14
2017-04-22T04:36:05.995Z,34.33
2017-04-22T04:37:07.455Z,34.33
2017-04-22T04:38:08.941Z,34.43
2017-04-22T04:39:10.399Z,34.14
2017-04-22T04:40:11.854Z,34.23
2017-04-22T04:41:13.308Z,34.33
2017-04-22T04:42:14.772Z,34.23
2017-04-22T04:43:16.228Z,34.14
2017-04-22T04:44:17.692Z,34.05
2017-04-22T04:45:19.146Z,34.14
2017-04-22T04:46:20.599Z,34.14
2017-04-22T04:47:22.054Z,34.05
2017-04-22T04:48:25.563Z,34.05
2017-04-22T04:49:27.015Z,34.33
2017-04-22T04:50:28.483Z,34.43
2017-04-22T04:51:32.720Z,33.95
2017-04-22T04:52:35.848Z,33.95
2017-04-22T04:53:37.403Z,34.23
2017-04-22T04:54:38.859Z,34.14
2017-04-22T04:55:40.271Z,34.23
2017-04-22T04:56:41.729Z,34.05
2017-04-22T04:57:43.187Z,34.72
2017-04-22T04:58:44.642Z,34.43
2017-04-22T04:59:46.096Z,34.62
2017-04-22T05:00:47.552Z,34.53
2017-04-22T05:01:49.007Z,33.95
2017-04-22T05:02:50.466Z,34.23
2017-04-22T05:03:52.356Z,34.33
2017-04-22T05:04:53.825Z,34.33
2017-04-22T05:05:55.374Z,34.14
2017-04-22T05:06:56.834Z,34.14
2017-04-22T05:07:58.287Z,34.14
2017-04-22T05:08:59.932Z,34.23
2017-04-22T05:10:01.331Z,34.14
2017-04-22T05:11:02.918Z,33.95
2017-04-22T05:12:04.374Z,34.14
2017-04-22T05:13:05.827Z,34.05
2017-04-22T05:14:07.291Z,34.23
2017-04-22T05:15:08.747Z,34.33
2017-04-22T05:16:10.202Z,34.91
2017-04-22T05:17:11.656Z,34.72
2017-04-22T05:18:13.122Z,34.53
2017-04-22T05:19:14.611Z,34.43
2017-04-22T05:20:16.068Z,34.33
2017-04-22T05:21:17.524Z,34.43
2017-04-22T05:22:18.981Z,34.43
2017-04-22T05:23:20.438Z,34.62
2017-04-22T05:24:21.894Z,34.53
2017-04-22T05:25:23.351Z,34.62
2017-04-22T05:26:25.815Z,34.53
2017-04-22T05:27:27.275Z,34.33
2017-04-22T05:28:28.732Z,34.53
2017-04-22T05:29:30.191Z,34.45
2017-04-22T05:30:31.652Z,34.35
2017-04-22T05:31:33.110Z,34.35
2017-04-22T05:32:34.568Z,34.25
2017-04-22T05:33:36.022Z,34.45
2017-04-22T05:34:37.478Z,33.97
2017-04-22T05:35:38.938Z,34.06
2017-04-22T05:36:40.388Z,34.06
2017-04-22T05:37:41.844Z,34.16
2017-04-22T05:38:43.307Z,34.25
2017-04-22T05:39:44.776Z,34.25
2017-04-22T05:40:46.230Z,34.16
2017-04-22T05:41:47.687Z,34.25
2017-04-22T05:42:49.147Z,33.77
2017-04-22T05:43:50.601Z,34.16
2017-04-22T05:44:52.064Z,34.16
2017-04-22T05:45:53.526Z,34.16
2017-04-22T05:46:54.983Z,34.17
2017-04-22T05:47:56.439Z,34.27
2017-04-22T05:48:57.899Z,34.16
2017-04-22T05:49:59.358Z,34.06
2017-04-22T05:51:00.814Z,34.16
2017-04-22T05:52:02.276Z,34.06
2017-04-22T05:53:03.729Z,34.17
2017-04-22T05:54:05.185Z,33.79
2017-04-22T05:55:06.642Z,33.79
2017-04-22T05:56:08.096Z,34.08
2017-04-22T05:57:09.554Z,33.98
2017-04-22T05:58:11.548Z,34.27
2017-04-22T05:59:13.005Z,33.79
2017-04-22T06:00:15.293Z,33.50
2017-04-22T06:01:16.756Z,33.79
2017-04-22T06:02:18.214Z,33.79
2017-04-22T06:03:19.672Z,33.89
2017-04-22T06:04:21.127Z,33.69
2017-04-22T06:05:22.581Z,33.98
2017-04-22T06:06:24.039Z,33.79
2017-04-22T06:07:25.496Z,34.08
2017-04-22T06:08:26.950Z,34.17
2017-04-22T06:09:28.407Z,34.08
2017-04-22T06:10:29.865Z,33.91
2017-04-22T06:11:31.322Z,34.29
2017-04-22T06:12:32.777Z,34.00
2017-04-22T06:13:34.232Z,34.29
2017-04-22T06:14:35.695Z,34.00
2017-04-22T06:15:37.151Z,34.00
2017-04-22T06:16:38.608Z,33.81
2017-04-22T06:17:40.072Z,34.29
2017-04-22T06:18:41.525Z,33.81
2017-04-22T06:19:42.985Z,34.09
2017-04-22T06:20:44.441Z,34.48
2017-04-22T06:21:45.897Z,34.19
2017-04-22T06:22:47.353Z,34.38
2017-04-22T06:23:48.811Z,34.00
2017-04-22T06:24:50.267Z,34.58
2017-04-22T06:25:51.725Z,34.29
2017-04-22T06:26:53.181Z,34.40
2017-04-22T06:27:54.638Z,34.86
2017-04-22T06:28:56.096Z,34.58
2017-04-22T06:29:57.505Z,34.30
2017-04-22T06:30:58.962Z,34.69
2017-04-22T06:32:00.418Z,34.58
2017-04-22T06:33:01.996Z,34.58
2017-04-22T06:34:03.457Z,34.38
2017-04-22T06:35:04.915Z,34.40
2017-04-22T06:36:06.382Z,34.19
2017-04-22T06:37:07.839Z,34.09
2017-04-22T06:38:09.300Z,34.19
2017-04-22T06:39:10.756Z,34.09
2017-04-22T06:40:12.209Z,34.19
2017-04-22T06:41:13.669Z,33.91
2017-04-22T06:42:15.126Z,34.19
2017-04-22T06:43:16.584Z,34.38
2017-04-22T06:44:18.442Z,33.71
2017-04-22T06:45:19.891Z,34.29
2017-04-22T06:46:21.350Z,33.81
2017-04-22T06:47:22.809Z,34.19
2017-04-22T06:48:24.267Z,34.00
2017-04-22T06:49:25.721Z,34.19
2017-04-22T06:50:27.136Z,34.19
2017-04-22T06:51:28.593Z,34.09
2017-04-22T06:52:30.068Z,34.38
2017-04-22T06:53:31.530Z,34.48
2017-04-22T06:54:32.991Z,34.58
2017-04-22T06:55:34.449Z,34.48
2017-04-22T06:56:35.912Z,34.38
2017-04-22T06:57:37.412Z,34.77
2017-04-22T06:58:38.872Z,34.50
2017-04-22T06:59:40.342Z,34.30
2017-04-22T07:00:41.795Z,34.59
2017-04-22T07:01:43.290Z,34.48
2017-04-22T07:02:44.746Z,34.30
2017-04-22T07:03:46.205Z,34.30
2017-04-22T07:04:47.665Z,34.59
2017-04-22T07:05:49.121Z,34.88
2017-04-22T07:06:50.578Z,34.78
2017-04-22T07:07:52.320Z,34.88
2017-04-22T07:08:57.261Z,34.59
2017-04-22T07:09:58.747Z,34.21
2017-04-22T07:11:00.206Z,34.59
2017-04-22T07:12:04.338Z,34.40
2017-04-22T07:13:06.479Z,34.59
2017-04-22T07:14:07.949Z,34.50
2017-04-22T07:15:09.412Z,34.69
2017-04-22T07:16:10.873Z,34.40
2017-04-22T07:17:12.331Z,34.40
2017-04-22T07:18:13.788Z,34.29
2017-04-22T07:19:15.250Z,34.30
2017-04-22T07:20:16.708Z,33.82
2017-04-22T07:21:18.169Z,34.01
2017-04-22T07:22:19.627Z,33.92
2017-04-22T07:23:21.087Z,33.81
2017-04-22T07:24:22.544Z,34.19
2017-04-22T07:25:24.006Z,34.00
2017-04-22T07:26:25.464Z,34.38
2017-04-22T07:27:26.922Z,34.19
2017-04-22T07:28:28.380Z,34.01
2017-04-22T07:29:29.837Z,33.81
2017-04-22T07:30:31.294Z,33.92
2017-04-22T07:31:32.754Z,34.11
2017-04-22T07:32:34.216Z,34.38
2017-04-22T07:33:35.669Z,34.19
2017-04-22T07:34:37.129Z,34.38
2017-04-22T07:35:38.587Z,34.40
2017-04-22T07:36:40.051Z,34.38
2017-04-22T07:37:41.507Z,34.30
2017-04-22T07:38:42.967Z,34.29
2017-04-22T07:39:44.427Z,34.48
2017-04-22T07:40:45.887Z,34.48
2017-04-22T07:41:47.346Z,34.67
2017-04-22T07:42:48.804Z,34.40
2017-04-22T07:43:50.264Z,34.29
2017-04-22T07:44:51.721Z,34.38
2017-04-22T07:45:53.180Z,34.40
2017-04-22T07:46:54.637Z,34.19
2017-04-22T07:47:56.096Z,34.29
2017-04-22T07:48:57.554Z,34.29
2017-04-22T07:49:59.014Z,34.38
2017-04-22T07:51:00.472Z,34.38
2017-04-22T07:52:01.931Z,34.00
2017-04-22T07:53:03.390Z,34.38
2017-04-22T07:54:04.848Z,34.00
2017-04-22T07:55:06.306Z,33.82
2017-04-22T07:56:07.765Z,34.19
2017-04-22T07:57:09.225Z,33.71
2017-04-22T07:58:10.681Z,34.00
2017-04-22T07:59:12.139Z,34.29
2017-04-22T08:00:13.600Z,34.30
2017-04-22T08:01:15.060Z,34.21
2017-04-22T08:02:16.518Z,34.29
2017-04-22T08:03:17.975Z,34.29
2017-04-22T08:04:19.459Z,33.71
2017-04-22T08:05:20.919Z,34.00
2017-04-22T08:06:22.378Z,34.00
2017-04-22T08:07:23.838Z,34.00
2017-04-22T08:08:25.297Z,34.29
2017-04-22T08:09:27.087Z,34.19
2017-04-22T08:10:28.555Z,33.81
2017-04-22T08:11:30.013Z,33.81
2017-04-22T08:12:31.469Z,34.00
2017-04-22T08:13:32.927Z,33.91
2017-04-22T08:14:34.386Z,34.29
2017-04-22T08:15:35.842Z,33.81
2017-04-22T08:16:37.300Z,34.00
2017-04-22T08:17:38.769Z,33.81
2017-04-22T08:18:40.228Z,34.00
2017-04-22T08:19:41.684Z,34.09
2017-04-22T08:20:43.145Z,33.61
2017-04-22T08:21:44.607Z,33.81
2017-04-22T08:22:46.064Z,33.81
2017-04-22T08:23:49.924Z,34.00
2017-04-22T08:24:51.381Z,33.91
2017-04-22T08:25:52.841Z,34.29
2017-04-22T08:26:54.298Z,34.01
2017-04-22T08:27:55.756Z,34.21
2017-04-22T08:28:57.213Z,34.09
2017-04-22T08:29:58.675Z,34.01
2017-04-22T08:31:03.865Z,34.21
2017-04-22T08:32:05.491Z,33.82
2017-04-22T08:33:06.896Z,34.50
2017-04-22T08:34:08.361Z,34.40
2017-04-22T08:35:13.678Z,34.38
2017-04-22T08:36:15.082Z,33.82
2017-04-22T08:37:16.539Z,33.23
2017-04-22T08:38:17.999Z,33.33
2017-04-22T08:39:19.463Z,32.94
2017-04-22T08:40:20.918Z,33.51
2017-04-22T08:41:22.373Z,33.71
2017-04-22T08:42:23.830Z,33.12
2017-04-22T08:43:25.289Z,33.02
2017-04-22T08:44:28.432Z,32.92
2017-04-22T08:45:29.839Z,33.02
2017-04-22T08:46:31.296Z,32.73
2017-04-22T08:47:32.752Z,32.65
2017-04-22T08:48:34.210Z,32.64
2017-04-22T08:49:35.668Z,32.73
2017-04-22T08:50:39.949Z,32.25
2017-04-22T08:51:41.370Z,32.34
2017-04-22T08:52:42.825Z,32.73
2017-04-22T08:53:44.295Z,31.57
2017-04-22T08:54:45.754Z,30.42
2017-04-22T08:55:47.220Z,30.42
2017-04-22T08:56:49.528Z,30.53
2017-04-22T08:57:50.984Z,30.82
2017-04-22T08:58:52.442Z,30.43
2017-04-22T08:59:53.916Z,30.05
2017-04-22T09:00:55.415Z,31.69
2017-04-22T09:01:56.831Z,30.82
2017-04-22T09:02:58.305Z,30.15
2017-04-22T09:03:59.763Z,30.05
2017-04-22T09:05:01.222Z,31.49
2017-04-22T09:06:03.186Z,31.88
2017-04-22T09:07:04.637Z,30.82
2017-04-22T09:08:07.119Z,30.24
2017-04-22T09:09:08.588Z,31.59
2017-04-22T09:10:10.046Z,31.11
2017-04-22T09:11:11.572Z,31.21
2017-04-22T09:12:13.126Z,31.69
2017-04-22T09:13:14.875Z,31.59
2017-04-22T09:14:16.326Z,31.40
2017-04-22T09:15:17.815Z,32.07
2017-04-22T09:16:21.390Z,31.98
2017-04-22T09:17:22.896Z,32.18
2017-04-22T09:18:24.357Z,32.26
2017-04-22T09:19:25.817Z,32.26
2017-04-22T09:20:27.280Z,32.65
2017-04-22T09:21:28.736Z,32.36
2017-04-22T09:22:30.192Z,32.84
2017-04-22T09:23:31.647Z,32.67
2017-04-22T09:24:33.109Z,33.05
2017-04-22T09:25:35.120Z,32.94
2017-04-22T09:26:36.580Z,32.57
2017-04-22T09:27:38.038Z,32.86
2017-04-22T09:28:39.501Z,32.28
2017-04-22T09:29:40.993Z,32.57
2017-04-22T09:30:42.488Z,32.67
2017-04-22T09:31:43.935Z,32.38
2017-04-22T09:32:45.398Z,32.76
2017-04-22T09:33:46.901Z,32.76
2017-04-22T09:34:48.377Z,32.28
2017-04-22T09:35:49.835Z,32.47
2017-04-22T09:36:51.297Z,32.67
2017-04-22T09:37:52.755Z,32.57
2017-04-22T09:38:54.216Z,32.67
2017-04-22T09:39:57.306Z,32.86
2017-04-22T09:40:58.725Z,32.47
2017-04-22T09:42:00.184Z,32.86
2017-04-22T09:43:01.648Z,32.86
2017-04-22T09:44:03.108Z,32.47
2017-04-22T09:45:04.568Z,32.28
2017-04-22T09:46:06.026Z,32.38
2017-04-22T09:47:09.296Z,32.57
2017-04-22T09:48:10.749Z,32.59
2017-04-22T09:49:12.208Z,32.49
2017-04-22T09:50:13.667Z,32.57
2017-04-22T09:51:15.130Z,32.38
2017-04-22T09:52:16.589Z,32.67
2017-04-22T09:53:18.047Z,32.29
2017-04-22T09:54:19.510Z,32.39
2017-04-22T09:55:20.967Z,32.68
2017-04-22T09:56:22.423Z,32.59
2017-04-22T09:57:23.898Z,32.39
2017-04-22T09:58:25.379Z,32.38
2017-04-22T09:59:26.832Z,32.68
2017-04-22T10:00:28.291Z,32.76
2017-04-22T10:01:29.749Z,32.38
2017-04-22T10:02:31.205Z,32.18
2017-04-22T10:03:32.670Z,31.70
2017-04-22T10:04:34.127Z,31.91
2017-04-22T10:05:35.588Z,31.51
2017-04-22T10:06:37.045Z,31.70
2017-04-22T10:07:38.569Z,31.70
2017-04-22T10:08:40.029Z,31.90
2017-04-22T10:09:41.488Z,31.51
2017-04-22T10:10:42.945Z,31.51
2017-04-22T10:11:45.514Z,32.09
2017-04-22T10:12:46.929Z,32.28
2017-04-22T10:13:48.383Z,32.09
2017-04-22T10:14:51.017Z,31.99
2017-04-22T10:15:52.431Z,31.41
2017-04-22T10:16:53.891Z,32.28
2017-04-22T10:17:56.236Z,31.80
2017-04-22T10:18:57.695Z,31.51
2017-04-22T10:19:59.154Z,32.38
2017-04-22T10:21:00.616Z,32.09
2017-04-22T10:22:04.644Z,32.18
2017-04-22T10:23:06.103Z,32.28
2017-04-22T10:24:07.563Z,32.38
2017-04-22T10:25:09.699Z,32.18
2017-04-22T10:26:11.193Z,32.28
2017-04-22T10:27:12.652Z,32.18
2017-04-22T10:28:14.117Z,32.18
2017-04-22T10:29:15.576Z,32.09
2017-04-22T10:30:17.039Z,32.38
2017-04-22T10:31:18.499Z,32.67
2017-04-22T10:32:19.959Z,32.28
2017-04-22T10:33:21.416Z,32.28
2017-04-22T10:34:22.873Z,32.09
2017-04-22T10:35:24.335Z,32.59
2017-04-22T10:36:25.794Z,32.97
2017-04-22T10:37:27.251Z,33.36
2017-04-22T10:38:29.514Z,32.87
2017-04-22T10:39:30.977Z,32.87
2017-04-22T10:40:32.434Z,32.39
2017-04-22T10:41:33.863Z,32.39
2017-04-22T10:42:35.323Z,32.68
2017-04-22T10:43:36.783Z,32.29
2017-04-22T10:44:38.244Z,32.68
2017-04-22T10:45:39.701Z,32.29
2017-04-22T10:46:41.156Z,32.49
2017-04-22T10:47:42.616Z,32.39
2017-04-22T10:48:44.073Z,32.59
2017-04-22T10:49:45.537Z,32.49
2017-04-22T10:50:46.996Z,32.20
2017-04-22T10:51:48.458Z,32.20
2017-04-22T10:52:49.939Z,32.29
2017-04-22T10:53:51.412Z,32.49
2017-04-22T10:54:52.879Z,32.39
2017-04-22T10:55:54.338Z,32.49
2017-04-22T10:56:56.701Z,32.49
2017-04-22T10:57:58.163Z,32.39
2017-04-22T10:58:59.622Z,32.12
2017-04-22T11:00:01.081Z,32.41
2017-04-22T11:01:02.549Z,32.41
2017-04-22T11:02:04.003Z,32.31
2017-04-22T11:03:05.426Z,32.12
2017-04-22T11:04:06.908Z,32.12
2017-04-22T11:05:08.358Z,32.31
2017-04-22T11:06:09.814Z,32.70
2017-04-22T11:07:11.278Z,32.60
2017-04-22T11:08:12.740Z,32.41
2017-04-22T11:09:14.202Z,32.12
2017-04-22T11:10:15.657Z,32.03
2017-04-22T11:11:17.117Z,31.45
2017-04-22T11:12:18.574Z,31.93
2017-04-22T11:13:20.037Z,32.03
2017-04-22T11:14:21.499Z,32.31
2017-04-22T11:15:22.957Z,32.21
2017-04-22T11:16:26.284Z,32.31
2017-04-22T11:17:27.754Z,32.03
2017-04-22T11:18:29.212Z,32.03
2017-04-22T11:19:30.669Z,32.12
2017-04-22T11:20:32.127Z,31.45
2017-04-22T11:21:33.602Z,31.83
2017-04-22T11:22:35.061Z,31.93
2017-04-22T11:23:36.531Z,31.73
2017-04-22T11:24:37.987Z,31.54
2017-04-22T11:25:39.451Z,31.54
2017-04-22T11:26:41.695Z,31.63
2017-04-22T11:27:44.508Z,31.73
2017-04-22T11:28:45.962Z,31.73
2017-04-22T11:29:48.300Z,31.63
2017-04-22T11:30:49.795Z,31.45
2017-04-22T11:31:51.587Z,31.73
2017-04-22T11:32:53.051Z,31.63
2017-04-22T11:33:56.481Z,31.63
2017-04-22T11:34:57.885Z,31.73
2017-04-22T11:35:59.342Z,31.63
2017-04-22T11:37:00.805Z,31.73
2017-04-22T11:38:02.263Z,31.54
2017-04-22T11:39:03.723Z,31.35
2017-04-22T11:40:05.277Z,32.03
2017-04-22T11:41:06.779Z,32.21
2017-04-22T11:42:08.237Z,32.21
2017-04-22T11:43:09.750Z,32.21
2017-04-22T11:44:11.218Z,32.03
2017-04-22T11:45:12.681Z,31.54
2017-04-22T11:46:15.522Z,32.12
2017-04-22T11:47:16.980Z,32.03
2017-04-22T11:48:18.437Z,32.31
2017-04-22T11:49:19.899Z,32.12
2017-04-22T11:50:21.357Z,32.20
2017-04-22T11:51:22.817Z,32.31
2017-04-22T11:52:24.275Z,32.20
2017-04-22T11:53:28.616Z,32.12
2017-04-22T11:54:30.083Z,32.12
2017-04-22T11:55:31.541Z,31.43
2017-04-22T11:56:33.001Z,32.01
2017-04-22T11:57:36.540Z,32.01
2017-04-22T11:58:37.994Z,32.20
2017-04-22T11:59:39.459Z,32.01
2017-04-22T12:00:40.912Z,31.91
2017-04-22T12:01:42.369Z,31.52
2017-04-22T12:02:43.829Z,31.81
2017-04-22T12:03:45.292Z,31.81
2017-04-22T12:04:46.750Z,31.91
2017-04-22T12:05:48.235Z,31.52
2017-04-22T12:06:49.691Z,31.62
2017-04-22T12:07:51.182Z,31.52
2017-04-22T12:08:52.642Z,31.72
2017-04-22T12:09:54.107Z,31.43
2017-04-22T12:10:55.611Z,31.72
2017-04-22T12:11:57.070Z,31.72
2017-04-22T12:12:58.524Z,31.72
2017-04-22T12:13:59.991Z,31.52
2017-04-22T12:15:01.449Z,31.72
2017-04-22T12:16:02.909Z,31.72
2017-04-22T12:17:04.366Z,31.62
2017-04-22T12:18:05.824Z,31.62
2017-04-22T12:19:07.288Z,31.62
2017-04-22T12:20:08.746Z,32.39
2017-04-22T12:21:10.205Z,32.29
2017-04-22T12:22:11.664Z,32.49
2017-04-22T12:23:13.127Z,32.29
2017-04-22T12:24:14.585Z,32.39
2017-04-22T12:25:16.041Z,32.39
2017-04-22T12:26:17.501Z,32.10
2017-04-22T12:27:18.961Z,32.29
2017-04-22T12:28:20.419Z,31.52
2017-04-22T12:29:21.878Z,31.62
2017-04-22T12:30:23.336Z,31.62
2017-04-22T12:31:24.813Z,32.20
2017-04-22T12:32:26.273Z,32.10
2017-04-22T12:33:27.732Z,32.20
2017-04-22T12:34:29.187Z,31.91
2017-04-22T12:35:30.644Z,31.62
2017-04-22T12:36:32.102Z,31.72
2017-04-22T12:37:33.558Z,31.62
2017-04-22T12:38:35.025Z,31.81
2017-04-22T12:39:36.483Z,31.70
2017-04-22T12:40:37.972Z,31.72
2017-04-22T12:41:39.399Z,31.60
2017-04-22T12:42:40.854Z,31.70
2017-04-22T12:43:42.320Z,31.41
2017-04-22T12:44:43.775Z,31.60
2017-04-22T12:45:45.232Z,31.60
2017-04-22T12:46:46.691Z,31.72
2017-04-22T12:47:48.148Z,31.41
2017-04-22T12:48:49.605Z,31.41
2017-04-22T12:49:51.063Z,31.51
2017-04-22T12:50:52.519Z,31.41
2017-04-22T12:51:53.980Z,31.32
2017-04-22T12:52:55.420Z,31.51
2017-04-22T12:53:56.878Z,31.22
2017-04-22T12:54:58.336Z,31.60
2017-04-22T12:55:59.794Z,31.60
2017-04-22T12:57:01.254Z,31.80
2017-04-22T12:58:02.713Z,31.70
2017-04-22T12:59:04.170Z,31.60
2017-04-22T13:00:05.629Z,31.80
2017-04-22T13:01:07.091Z,31.70
2017-04-22T13:02:08.551Z,31.51
2017-04-22T13:03:10.009Z,31.60
2017-04-22T13:04:11.480Z,31.51
2017-04-22T13:05:12.932Z,31.60
2017-04-22T13:06:14.390Z,31.51
2017-04-22T13:07:15.851Z,31.60
2017-04-22T13:08:17.310Z,31.70
2017-04-22T13:09:18.769Z,31.41
2017-04-22T13:10:20.187Z,31.70
2017-04-22T13:11:21.643Z,31.60
2017-04-22T13:12:23.101Z,31.62